Terminal Aerodrome Forecast
Issued by NWS Pueblo, CO

Home | Current Version | Previous Version | Text Only | Print | Product List | Glossary On
Versions: 1 2 3 4 5 6 7 8 9 10 11 12 13 14 15 16 17 18 19 20 21 22 23
000
FTUS45 KPUB 261731
TAFCOS
TAF
KCOS 261731Z 2618/2718 34018G28KT P6SM VCSH SCT040 BKN080
     FM262000 01014KT P6SM SCT050 BKN090
     FM270100 03008KT P6SM SCT080 BKN140
     FM270400 VRB04KT P6SM SCT100
     FM271600 16012KT P6SM SCT130=

USA.gov is the U.S. government's official web portal to all federal, state and local government web resources and services.